Islamorada, FL

3:50 PM EDT on August 23, 2014 (GMT -0400)
Brown and Crebbin Design Studio | Change Station
CLOSE
Current Station
Personal Weather Station
Location: Plantation Key, FL
Elevation: 9 ft
Nearby Weather Stations

Elev 9 ft 25.00 °N, 80.54 °W | Updated 0 second ago

Partly Cloudy
Partly Cloudy
89.0 °F
Feels Like 105 °F
N
0.0
Wind Variable Wind from East
Gusts 1.0 mph

Today
High -- | Low -- °F
--% Chance of Precip.
Yesterday
High -- | Low -- °F
Precip. -- in
6:59 AM 7:49 PM
Waning Crescent, 3% visible
Pressure 29.94 in
Visibility 9.0 miles
Clouds Few 4800 ft
Heat Index 105 °F
Dew Point 79 °F
Humidity 73%
Rainfall 0.00 in
Snow Depth Not available.
UV 12 out of 12
Pollen 5.00 out of 12
Air Quality Not available.
Flu Activity Not available.
METAR KHST 231858Z AUTO 05009KT 9SM VCTS FEW048 32/23 A2993 RMK AO2 LTG DSNT S-W SLP138 T03180226

More Conditions Fewer Conditions

Pressure 29.94 in
Visibility 9.0 miles
Clouds Few 4800 ft
Heat Index 105 °F
Dew Point 79 °F
Humidity 73%
Rainfall 0.00 in
Snow Depth Not available.
UV 12 out of 12
Pollen 5.00 out of 12
Air Quality Not available.
Flu Activity Not available.
METAR KHST 231858Z AUTO 05009KT 9SM VCTS FEW048 32/23 A2993 RMK AO2 LTG DSNT S-W SLP138 T03180226

More Conditions Fewer Conditions

Nowcast | as of 2:51 PM EDT on August 23, 2014

Until 4 PM...isolated showers will affect the offshore waters beyond 20 nm southeast of the island chain. Meanwhile...showers and thunderstorms will continue to develop over southern Dade County...and a few cells may track into Florida Bay. Movement of most activity will be toward the south southwest near 10 mph. Over land...no rainfall is expected. A few heavier cells will deliver wind gusts of 20 to 25 knots...reduce visibility to below 4 miles in moderate to heavy rain and possibly a few cloud to water lightning strikes.

×

10-Day Weather Forecast

Almanac

Astronomy

Aug. 23, 2014 Rise Set
Actual Time 6:59 AM EDT 7:49 PM EDT
Civil Twilight 6:36 AM EDT 8:13 PM EDT
Nautical Twilight 6:08 AM EDT 8:41 PM EDT
Astronomical Twilight 5:40 AM EDT 9:09 PM EDT
Moon 5:18 AM EDT 6:32 PM EDT
Length of Visible Light 13h 36m
Length of Day
12h 49m
Tomorrow will be 1m 20s shorter.
Waning Crescent, 3% of the Moon is Illuminated
Today
Waning Crescent
Aug 25
New
Sep 2
First Quarter
Sep 8
Full
Sep 15
Last Quarter

Today's Extremes

State Highs State Lows

Community

WunderPhotos

Upload Photos

1,746,583 photos uploaded!

WunderBlogs® & News

Nearby

Snow Depth

Station Depth Elevation
No new snow has been reported.

Earthquake Activity

City Distance Mag. Time & Date
No recent earthquake activity has been reported nearby.
Minimum magnitude displayed is 2.5.

Coastal Water Temperatures

Place Temperature
No Stations Reporting

Nearby Weather Stations